Puffin Bulker — V7WM6 — position and weather

sailwx.info

Track history (hours):
 
Tides and Currents Weather Stations Pressure Air Temp Water Temp Dewpoint Dewpoint Depression Visibility Wind Speed Wind Dir Waves Ship Positions

Puffin Bulker

Last reported at 2017-Oct-07 18:05 UTC. Time now 2017-Nov-21 10:09 UTC.
Position N 35°49' E 014°40'.
Warning: this ship's position is 44 days out of date.

Length 190 m; draft 12.9 m.

Type: Cargo ship. MMSI: 538004339.

Date/timePositionNaut miles runAvg speedWind from/ knotsBaromVisibWave heightAir tempDewpointWater temp
2017-Oct-07 18:05N 35°49' E 014°40'110.6
2017-Oct-07 17:58N 35°49' E 014°39'3 5.8
2017-Oct-07 17:30N 35°50' E 014°36'0 0.2
2017-Oct-07 16:59N 35°50' E 014°36'0 0.0
2017-Oct-07 16:29N 35°50' E 014°36'0 0.1
2017-Oct-07 14:50N 35°50' E 014°36'0 0.1
2017-Oct-07 14:26N 35°50' E 014°36'0 0.0
2017-Oct-07 13:53N 35°50' E 014°36'0 0.0
2017-Oct-07 13:29N 35°50' E 014°36'0 0.0
2017-Oct-07 12:56N 35°50' E 014°36'0 0.0
2017-Oct-07 11:38N 35°50' E 014°36'0 0.0
2017-Oct-07 11:17N 35°50' E 014°36'0 0.0
2017-Oct-07 10:59N 35°50' E 014°36'0 0.0
2017-Oct-07 10:29N 35°50' E 014°36'0 0.0
2017-Oct-07 09:59N 35°50' E 014°36'0 0.0
2017-Oct-07 09:29N 35°50' E 014°36'0 0.0
2017-Oct-07 08:59N 35°50' E 014°36'0 0.0
2017-Oct-07 08:26N 35°50' E 014°36'0 0.0
2017-Oct-07 07:59N 35°50' E 014°36'0 0.0
2017-Oct-07 07:29N 35°50' E 014°36'0 0.0
2017-Oct-07 06:56N 35°50' E 014°36'0 0.0
2017-Oct-07 06:29N 35°50' E 014°36'0 0.1
2017-Oct-07 06:00N 35°50' E 014°36'1 2.2
2017-Oct-07 05:28N 35°49' E 014°37'4 7.8
2017-Oct-07 05:00N 35°53' E 014°36'510.0
2017-Oct-07 04:30N 35°58' E 014°35'510.2
2017-Oct-07 04:00N 36°03' E 014°33'611.2
2017-Oct-07 03:30N 36°08' E 014°31'611.1
2017-Oct-07 03:00N 36°13' E 014°29'511.1
2017-Oct-07 02:30N 36°17' E 014°24'611.5
2017-Oct-07 02:00N 36°21' E 014°18'611.7
2017-Oct-07 01:30N 36°24' E 014°12'611.8
2017-Oct-07 01:01N 36°28' E 014°06'1412.0
2017-Oct-06 23:49N 36°36' E 013°52'411.9
2017-Oct-06 23:27N 36°39' E 013°47'1111.8
2017-Oct-06 22:30N 36°45' E 013°36'  
2017-Oct-02 11:23N 35°46' W 010°38'3610.0
2017-Oct-02 07:47N 35°44' W 011°21'3 9.9
2017-Oct-02 07:30N 35°44' W 011°25'9 9.9
2017-Oct-02 06:34N 35°43' W 011°36'1 9.7
2017-Oct-02 06:28N 35°43' W 011°38'5 9.9
2017-Oct-02 05:57N 35°42' W 011°44'4 9.9
2017-Oct-02 05:30N 35°42' W 011°49'610.2
2017-Oct-02 04:54N 35°42' W 011°57'410.1
2017-Oct-02 04:30N 35°41' W 012°02'5 9.8
2017-Oct-02 04:00N 35°41' W 012°08'27 9.8
2017-Oct-02 01:17N 35°39' W 012°40'5 9.3
2017-Oct-02 00:43N 35°39' W 012°47'2 9.5
2017-Oct-02 00:30N 35°38' W 012°49'  
Track history (hours):
 
Tides and Currents Weather Stations Pressure Air Temp Water Temp Dewpoint Dewpoint Depression Visibility Wind Speed Wind Dir Waves Ship Positions

Puffin Bulker

Last reported at 2017-Oct-07 18:05 UTC. Time now 2017-Nov-21 10:09 UTC.
Position N 35°49' E 014°40'.
Warning: this ship's position is 44 days out of date.

Length 190 m; draft 12.9 m.

Type: Cargo ship. MMSI: 538004339.

Date/timePositionNaut miles runAvg speedWind from/ knotsBaromVisibWave heightAir tempDewpointWater temp
2017-Oct-07 18:05N 35°49' E 014°40'110.6
2017-Oct-07 17:58N 35°49' E 014°39'3 5.8
2017-Oct-07 17:30N 35°50' E 014°36'0 0.2
2017-Oct-07 16:59N 35°50' E 014°36'0 0.0
2017-Oct-07 16:29N 35°50' E 014°36'0 0.1
2017-Oct-07 14:50N 35°50' E 014°36'0 0.1
2017-Oct-07 14:26N 35°50' E 014°36'0 0.0
2017-Oct-07 13:53N 35°50' E 014°36'0 0.0
2017-Oct-07 13:29N 35°50' E 014°36'0 0.0
2017-Oct-07 12:56N 35°50' E 014°36'0 0.0
2017-Oct-07 11:38N 35°50' E 014°36'0 0.0
2017-Oct-07 11:17N 35°50' E 014°36'0 0.0
2017-Oct-07 10:59N 35°50' E 014°36'0 0.0
2017-Oct-07 10:29N 35°50' E 014°36'0 0.0
2017-Oct-07 09:59N 35°50' E 014°36'0 0.0
2017-Oct-07 09:29N 35°50' E 014°36'0 0.0
2017-Oct-07 08:59N 35°50' E 014°36'0 0.0
2017-Oct-07 08:26N 35°50' E 014°36'0 0.0
2017-Oct-07 07:59N 35°50' E 014°36'0 0.0
2017-Oct-07 07:29N 35°50' E 014°36'0 0.0
2017-Oct-07 06:56N 35°50' E 014°36'0 0.0
2017-Oct-07 06:29N 35°50' E 014°36'0 0.1
2017-Oct-07 06:00N 35°50' E 014°36'1 2.2
2017-Oct-07 05:28N 35°49' E 014°37'4 7.8
2017-Oct-07 05:00N 35°53' E 014°36'510.0
2017-Oct-07 04:30N 35°58' E 014°35'510.2
2017-Oct-07 04:00N 36°03' E 014°33'611.2
2017-Oct-07 03:30N 36°08' E 014°31'611.1
2017-Oct-07 03:00N 36°13' E 014°29'511.1
2017-Oct-07 02:30N 36°17' E 014°24'611.5
2017-Oct-07 02:00N 36°21' E 014°18'611.7
2017-Oct-07 01:30N 36°24' E 014°12'611.8
2017-Oct-07 01:01N 36°28' E 014°06'1412.0
2017-Oct-06 23:49N 36°36' E 013°52'411.9
2017-Oct-06 23:27N 36°39' E 013°47'1111.8
2017-Oct-06 22:30N 36°45' E 013°36'  
2017-Oct-02 11:23N 35°46' W 010°38'3610.0
2017-Oct-02 07:47N 35°44' W 011°21'3 9.9
2017-Oct-02 07:30N 35°44' W 011°25'9 9.9
2017-Oct-02 06:34N 35°43' W 011°36'1 9.7
2017-Oct-02 06:28N 35°43' W 011°38'5 9.9
2017-Oct-02 05:57N 35°42' W 011°44'4 9.9
2017-Oct-02 05:30N 35°42' W 011°49'610.2
2017-Oct-02 04:54N 35°42' W 011°57'410.1
2017-Oct-02 04:30N 35°41' W 012°02'5 9.8
2017-Oct-02 04:00N 35°41' W 012°08'27 9.8
2017-Oct-02 01:17N 35°39' W 012°40'5 9.3
2017-Oct-02 00:43N 35°39' W 012°47'2 9.5
2017-Oct-02 00:30N 35°38' W 012°49'  

Dump ship's entire track history